createdAt,value
2022-12-23T00:00:00.513Z,76.58
2022-12-23T00:01:00.488Z,76.48
2022-12-23T00:02:00.668Z,76.34
2022-12-23T00:03:00.630Z,76.28
2022-12-23T00:04:00.556Z,76.68
2022-12-23T00:05:00.447Z,76.58
2022-12-23T00:06:00.432Z,76.55
2022-12-23T00:07:00.441Z,76.48
2022-12-23T00:08:00.409Z,76.38
2022-12-23T00:09:00.454Z,76.38
2022-12-23T00:10:00.367Z,76.28
2022-12-23T00:11:00.346Z,76.04
2022-12-23T00:12:00.335Z,76.24
2022-12-23T00:13:00.326Z,76.55
2022-12-23T00:14:00.339Z,76.38
2022-12-23T00:15:00.294Z,76.58
2022-12-23T00:16:00.331Z,76.48
2022-12-23T00:17:00.366Z,77.00
2022-12-23T00:18:00.259Z,76.68
2022-12-23T00:19:00.235Z,76.38
2022-12-23T00:20:00.268Z,76.28
2022-12-23T00:21:04.997Z,76.28
2022-12-23T00:22:01.231Z,76.07
2022-12-23T00:23:00.232Z,76.07
2022-12-23T00:24:00.220Z,75.93
2022-12-23T00:25:00.161Z,75.93
2022-12-23T00:26:00.144Z,76.07
2022-12-23T00:27:00.146Z,75.83
2022-12-23T00:28:00.132Z,75.83
2022-12-23T00:29:00.139Z,75.87
2022-12-23T00:30:00.133Z,75.93
2022-12-23T00:31:00.110Z,76.04
2022-12-23T00:32:00.139Z,75.87
2022-12-23T00:33:00.063Z,76.04
2022-12-23T00:34:00.051Z,75.93
2022-12-23T00:35:00.036Z,76.07
2022-12-23T00:36:00.092Z,75.73
2022-12-23T00:36:59.999Z,75.97
2022-12-23T00:37:59.984Z,76.38
2022-12-23T00:38:59.997Z,76.17
2022-12-23T00:40:06.092Z,76.28
2022-12-23T00:41:00.990Z,75.87
2022-12-23T00:41:59.947Z,76.28
2022-12-23T00:42:59.923Z,76.28
2022-12-23T00:43:59.906Z,76.28
2022-12-23T00:44:59.894Z,76.38
2022-12-23T00:45:59.915Z,76.79
2022-12-23T00:46:59.874Z,76.72
2022-12-23T00:47:59.855Z,76.51
2022-12-23T00:48:59.855Z,76.58
2022-12-23T00:49:59.827Z,76.62
2022-12-23T00:50:59.820Z,76.82
2022-12-23T00:51:59.833Z,76.62
2022-12-23T00:52:59.785Z,76.82
2022-12-23T00:53:59.781Z,76.42
2022-12-23T00:54:59.799Z,76.31
2022-12-23T00:55:59.747Z,76.51
2022-12-23T00:56:59.750Z,76.28
2022-12-23T00:57:59.722Z,76.48
2022-12-23T00:58:59.705Z,76.31
2022-12-23T00:59:59.688Z,76.42
2022-12-23T01:00:59.727Z,76.42
2022-12-23T01:01:59.925Z,76.72
2022-12-23T01:02:59.804Z,76.10
2022-12-23T01:03:59.637Z,76.17
2022-12-23T01:04:59.652Z,76.21
2022-12-23T01:05:59.619Z,76.17
2022-12-23T01:06:59.602Z,76.28
2022-12-23T01:07:59.611Z,75.97
2022-12-23T01:08:59.593Z,76.21
2022-12-23T01:09:59.561Z,75.97
2022-12-23T01:10:59.627Z,75.56
2022-12-23T01:11:59.535Z,75.42
2022-12-23T01:12:59.527Z,75.42
2022-12-23T01:13:59.519Z,75.42
2022-12-23T01:14:59.524Z,75.32
2022-12-23T01:15:59.479Z,75.42
2022-12-23T01:16:59.487Z,75.32
2022-12-23T01:17:59.455Z,75.42
2022-12-23T01:18:59.447Z,75.42
2022-12-23T01:19:59.438Z,75.42
2022-12-23T01:20:59.414Z,75.32
2022-12-23T01:21:59.395Z,75.32
2022-12-23T01:22:59.384Z,75.42
2022-12-23T01:23:59.367Z,75.32
2022-12-23T01:24:59.369Z,75.52
2022-12-23T01:25:59.338Z,75.42
2022-12-23T01:26:59.357Z,75.42
2022-12-23T01:27:59.324Z,75.52
2022-12-23T01:28:59.307Z,75.35
2022-12-23T01:29:59.318Z,75.73
2022-12-23T01:30:59.299Z,75.52
2022-12-23T01:31:59.376Z,75.45
2022-12-23T01:32:59.265Z,75.62
2022-12-23T01:33:59.237Z,75.87
2022-12-23T01:34:59.233Z,75.76
2022-12-23T01:35:59.216Z,75.52
2022-12-23T01:36:59.196Z,75.52
2022-12-23T01:37:59.180Z,75.42
2022-12-23T01:38:59.177Z,75.52
2022-12-23T01:39:59.155Z,75.28
2022-12-23T01:40:59.153Z,75.42
2022-12-23T01:41:59.143Z,75.49
2022-12-23T01:42:59.151Z,75.42
2022-12-23T01:43:59.105Z,75.21
2022-12-23T01:44:59.137Z,75.18
2022-12-23T01:45:59.153Z,74.98
2022-12-23T01:46:59.064Z,75.11
2022-12-23T01:47:59.048Z,75.01
2022-12-23T01:48:59.036Z,75.18
2022-12-23T01:49:59.026Z,75.18
2022-12-23T01:50:59.010Z,75.18
2022-12-23T01:51:58.996Z,75.08
2022-12-23T01:53:04.622Z,74.98
2022-12-23T01:54:00.250Z,74.98
2022-12-23T01:54:58.953Z,74.98
2022-12-23T01:55:58.946Z,75.08
2022-12-23T01:56:58.928Z,74.87
2022-12-23T01:57:58.917Z,74.87
2022-12-23T01:58:58.956Z,74.73
2022-12-23T01:59:58.885Z,74.94
2022-12-23T02:00:58.950Z,74.77
2022-12-23T02:01:59.085Z,74.73
2022-12-23T02:02:58.962Z,74.84
2022-12-23T02:03:58.842Z,74.73
2022-12-23T02:04:58.825Z,74.63
2022-12-23T02:05:58.823Z,74.84
2022-12-23T02:06:58.790Z,74.63
2022-12-23T02:07:58.791Z,74.63
2022-12-23T02:08:58.777Z,74.84
2022-12-23T02:09:58.755Z,74.66
2022-12-23T02:10:58.750Z,74.63
2022-12-23T02:11:58.738Z,74.73
2022-12-23T02:12:58.717Z,74.84
2022-12-23T02:13:58.702Z,74.98
2022-12-23T02:14:58.720Z,74.87
2022-12-23T02:15:58.672Z,75.01
2022-12-23T02:16:58.751Z,74.87
2022-12-23T02:17:58.678Z,75.28
2022-12-23T02:18:58.636Z,75.08
2022-12-23T02:19:58.616Z,75.11
2022-12-23T02:20:58.601Z,74.91
2022-12-23T02:21:58.585Z,74.87
2022-12-23T02:22:58.590Z,75.21
2022-12-23T02:23:58.562Z,74.80
2022-12-23T02:24:58.588Z,74.77
2022-12-23T02:25:58.543Z,74.87
2022-12-23T02:26:58.523Z,74.66
2022-12-23T02:27:58.505Z,74.66
2022-12-23T02:28:58.508Z,74.66
2022-12-23T02:29:58.493Z,74.57
2022-12-23T02:30:58.604Z,74.66
2022-12-23T02:31:58.484Z,74.57
2022-12-23T02:32:58.447Z,74.57
2022-12-23T02:33:58.428Z,74.57
2022-12-23T02:34:58.418Z,74.49
2022-12-23T02:35:58.406Z,74.73
2022-12-23T02:36:58.393Z,74.57
2022-12-23T02:37:58.372Z,74.63
2022-12-23T02:38:58.353Z,74.57
2022-12-23T02:39:58.347Z,74.66
2022-12-23T02:40:58.337Z,74.77
2022-12-23T02:41:58.326Z,74.80
2022-12-23T02:42:58.308Z,74.77
2022-12-23T02:43:58.296Z,74.57
2022-12-23T02:44:58.278Z,74.66
2022-12-23T02:45:58.392Z,74.87
2022-12-23T02:46:58.277Z,74.77
2022-12-23T02:47:58.239Z,74.57
2022-12-23T02:48:58.243Z,74.53
2022-12-23T02:49:58.217Z,74.46
2022-12-23T02:50:58.197Z,74.46
2022-12-23T02:51:58.189Z,74.53
2022-12-23T02:52:58.170Z,74.66
2022-12-23T02:53:58.155Z,74.57
2022-12-23T02:54:58.138Z,74.36
2022-12-23T02:55:58.131Z,74.32
2022-12-23T02:56:58.130Z,74.32
2022-12-23T02:57:58.108Z,74.36
2022-12-23T02:58:58.089Z,74.32
2022-12-23T02:59:58.087Z,74.32
2022-12-23T03:00:58.060Z,74.15
2022-12-23T03:01:58.171Z,74.22
2022-12-23T03:02:58.309Z,74.02
2022-12-23T03:03:58.196Z,74.02
2022-12-23T03:05:00.841Z,73.91
2022-12-23T03:05:58.010Z,73.88
2022-12-23T03:06:57.982Z,73.98
2022-12-23T03:07:57.965Z,73.88
2022-12-23T03:08:57.955Z,73.88
2022-12-23T03:09:57.948Z,73.88
2022-12-23T03:10:57.928Z,74.02
2022-12-23T03:11:57.913Z,73.78
2022-12-23T03:12:57.920Z,73.81
2022-12-23T03:13:57.900Z,73.88
2022-12-23T03:14:57.878Z,73.88
2022-12-23T03:15:57.956Z,74.12
2022-12-23T03:16:57.847Z,74.02
2022-12-23T03:17:57.833Z,74.12
2022-12-23T03:18:57.842Z,74.15
2022-12-23T03:19:57.809Z,74.15
2022-12-23T03:20:57.800Z,74.12
2022-12-23T03:21:57.782Z,74.15
2022-12-23T03:22:57.771Z,74.12
2022-12-23T03:23:57.762Z,74.02
2022-12-23T03:24:57.740Z,74.08
2022-12-23T03:25:57.739Z,74.15
2022-12-23T03:26:57.724Z,74.15
2022-12-23T03:27:57.725Z,73.95
2022-12-23T03:28:57.742Z,74.05
2022-12-23T03:29:57.677Z,74.02
2022-12-23T03:30:57.701Z,74.02
2022-12-23T03:31:57.657Z,73.95
2022-12-23T03:32:57.652Z,73.91
2022-12-23T03:33:57.625Z,73.81
2022-12-23T03:34:57.630Z,73.68
2022-12-23T03:35:57.599Z,73.68
2022-12-23T03:36:57.587Z,73.57
2022-12-23T03:37:57.568Z,73.61
2022-12-23T03:38:57.560Z,73.61
2022-12-23T03:39:57.548Z,73.71
2022-12-23T03:40:57.531Z,73.61
2022-12-23T03:41:57.520Z,73.81
2022-12-23T03:42:57.500Z,73.71
2022-12-23T03:43:57.489Z,73.71
2022-12-23T03:45:36.399Z,73.71
2022-12-23T03:45:58.515Z,73.61
2022-12-23T03:46:57.501Z,73.61
2022-12-23T03:47:57.439Z,73.68
2022-12-23T03:48:57.421Z,73.61
2022-12-23T03:49:57.408Z,73.61
2022-12-23T03:50:57.416Z,73.71
2022-12-23T03:51:57.394Z,73.74
2022-12-23T03:52:57.370Z,73.85
2022-12-23T03:53:57.355Z,73.85
2022-12-23T03:54:57.331Z,73.85
2022-12-23T03:55:57.327Z,73.71
2022-12-23T03:56:57.328Z,73.71
2022-12-23T03:57:57.314Z,73.61
2022-12-23T03:58:57.286Z,73.50
2022-12-23T03:59:57.280Z,73.36
2022-12-23T04:00:57.256Z,73.13
2022-12-23T04:01:57.400Z,73.06
2022-12-23T04:02:57.363Z,73.03
2022-12-23T04:03:57.305Z,73.03
2022-12-23T04:04:57.204Z,73.06
2022-12-23T04:05:57.186Z,73.06
2022-12-23T04:06:57.203Z,73.16
2022-12-23T04:07:57.167Z,73.27
2022-12-23T04:08:57.155Z,73.30
2022-12-23T04:09:57.140Z,73.40
2022-12-23T04:10:57.131Z,73.44
2022-12-23T04:11:57.114Z,73.40
2022-12-23T04:12:57.111Z,73.40
2022-12-23T04:13:57.086Z,73.40
2022-12-23T04:14:57.072Z,73.30
2022-12-23T04:15:57.116Z,73.36
2022-12-23T04:16:57.048Z,73.30
2022-12-23T04:17:57.036Z,73.40
2022-12-23T04:18:57.019Z,73.40
2022-12-23T04:19:57.000Z,73.40
2022-12-23T04:20:56.986Z,73.40
2022-12-23T04:21:56.972Z,73.40
2022-12-23T04:22:57.004Z,73.40
2022-12-23T04:23:56.951Z,73.50
2022-12-23T04:24:56.941Z,73.40
2022-12-23T04:25:56.924Z,73.40
2022-12-23T04:26:56.922Z,73.50
2022-12-23T04:27:56.897Z,73.44
2022-12-23T04:28:56.883Z,73.50
2022-12-23T04:29:56.871Z,73.54
2022-12-23T04:30:56.875Z,73.61
2022-12-23T04:31:56.868Z,73.64
2022-12-23T04:32:56.826Z,73.64
2022-12-23T04:33:56.818Z,73.68
2022-12-23T04:34:56.833Z,73.78
2022-12-23T04:35:56.786Z,73.78
2022-12-23T04:36:56.784Z,73.88
2022-12-23T04:37:56.760Z,73.98
2022-12-23T04:38:56.778Z,73.91
2022-12-23T04:39:56.744Z,73.98
2022-12-23T04:40:56.728Z,74.02
2022-12-23T04:41:56.718Z,73.91
2022-12-23T04:42:56.693Z,74.02
2022-12-23T04:43:56.680Z,73.91
2022-12-23T04:44:56.678Z,73.81
2022-12-23T04:45:56.654Z,73.88
2022-12-23T04:46:56.707Z,73.91
2022-12-23T04:47:56.638Z,74.02
2022-12-23T04:48:56.616Z,73.88
2022-12-23T04:49:56.605Z,73.91
2022-12-23T04:50:56.605Z,73.88
2022-12-23T04:51:56.578Z,73.88
2022-12-23T04:52:56.564Z,73.88
2022-12-23T04:53:56.553Z,73.64
2022-12-23T04:54:56.678Z,73.64
2022-12-23T04:55:56.518Z,73.54
2022-12-23T04:56:56.501Z,73.40
2022-12-23T04:57:56.505Z,73.30
2022-12-23T04:58:56.484Z,73.19
2022-12-23T04:59:56.475Z,73.19
2022-12-23T05:00:56.515Z,73.16
2022-12-23T05:01:56.517Z,73.06
2022-12-23T05:02:56.525Z,73.27
2022-12-23T05:03:56.427Z,73.44
2022-12-23T05:04:56.417Z,73.30
2022-12-23T05:05:56.392Z,73.30
2022-12-23T05:06:56.376Z,73.30
2022-12-23T05:07:56.352Z,73.19
2022-12-23T05:08:56.349Z,73.30
2022-12-23T05:09:56.331Z,73.30
2022-12-23T05:10:56.348Z,73.30
2022-12-23T05:11:56.312Z,73.19
2022-12-23T05:12:56.303Z,73.30
2022-12-23T05:13:56.283Z,73.33
2022-12-23T05:14:56.266Z,73.33
2022-12-23T05:15:56.341Z,73.40
2022-12-23T05:16:59.518Z,73.33
2022-12-23T05:17:56.220Z,73.44
2022-12-23T05:18:56.212Z,73.44
2022-12-23T05:19:56.202Z,73.40
2022-12-23T05:20:56.189Z,73.40
2022-12-23T05:21:56.172Z,73.33
2022-12-23T05:22:56.157Z,73.23
2022-12-23T05:23:56.144Z,73.19
2022-12-23T05:24:56.140Z,73.10
2022-12-23T05:25:56.123Z,73.16
2022-12-23T05:27:00.038Z,73.19
2022-12-23T05:27:56.100Z,73.10
2022-12-23T05:28:56.073Z,73.10
2022-12-23T05:29:56.063Z,73.16
2022-12-23T05:30:56.067Z,73.10
2022-12-23T05:31:56.167Z,73.06
2022-12-23T05:32:56.022Z,73.06
2022-12-23T05:33:57.471Z,72.96
2022-12-23T05:34:56.008Z,73.06
2022-12-23T05:35:55.986Z,73.10
2022-12-23T05:36:55.975Z,73.10
2022-12-23T05:37:55.959Z,73.10
2022-12-23T05:38:55.951Z,73.23
2022-12-23T05:39:55.940Z,73.10
2022-12-23T05:40:55.935Z,73.23
2022-12-23T05:41:55.902Z,73.19
2022-12-23T05:42:55.914Z,73.23
2022-12-23T05:43:55.871Z,73.33
2022-12-23T05:44:55.869Z,73.33
2022-12-23T05:45:55.926Z,73.33
2022-12-23T05:46:55.837Z,73.23
2022-12-23T05:47:55.861Z,73.23
2022-12-23T05:48:55.810Z,73.23
2022-12-23T05:49:55.797Z,73.33
2022-12-23T05:50:55.789Z,73.30
2022-12-23T05:51:55.775Z,73.19
2022-12-23T05:52:55.773Z,73.19
2022-12-23T05:53:55.739Z,73.23
2022-12-23T05:54:55.736Z,73.33
2022-12-23T05:55:55.716Z,73.33
2022-12-23T05:56:55.707Z,73.54
2022-12-23T05:57:55.696Z,73.44
2022-12-23T05:58:55.715Z,73.47
2022-12-23T05:59:55.662Z,73.47
2022-12-23T06:00:55.646Z,73.50
2022-12-23T06:01:55.849Z,73.57
2022-12-23T06:02:55.866Z,73.57
2022-12-23T06:03:55.823Z,73.57
2022-12-23T06:04:55.599Z,73.57
2022-12-23T06:05:55.594Z,73.57
2022-12-23T06:06:55.575Z,73.47
2022-12-23T06:07:55.581Z,73.61
2022-12-23T06:08:59.520Z,73.71
2022-12-23T06:09:55.527Z,73.57
2022-12-23T06:10:55.520Z,73.68
2022-12-23T06:11:55.495Z,73.47
2022-12-23T06:12:55.487Z,73.57
2022-12-23T06:13:55.486Z,73.57
2022-12-23T06:14:55.488Z,73.57
2022-12-23T06:15:55.462Z,73.57
2022-12-23T06:16:55.562Z,73.57
2022-12-23T06:17:55.418Z,73.71
2022-12-23T06:18:55.429Z,73.81
2022-12-23T06:19:55.401Z,73.91
2022-12-23T06:20:55.382Z,73.85
2022-12-23T06:21:55.384Z,73.95
2022-12-23T06:22:55.361Z,73.95
2022-12-23T06:23:55.346Z,73.95
2022-12-23T06:24:55.333Z,73.95
2022-12-23T06:25:55.310Z,73.95
2022-12-23T06:26:57.422Z,74.05
2022-12-23T06:27:55.280Z,74.05
2022-12-23T06:28:55.271Z,74.05
2022-12-23T06:29:55.253Z,74.08
2022-12-23T06:30:55.269Z,74.15
2022-12-23T06:31:55.361Z,74.15
2022-12-23T06:32:55.215Z,74.19
2022-12-23T06:33:55.207Z,74.29
2022-12-23T06:34:55.193Z,74.33
2022-12-23T06:35:55.184Z,74.29
2022-12-23T06:36:55.167Z,74.29
2022-12-23T06:37:55.165Z,74.33
2022-12-23T06:38:55.132Z,74.33
2022-12-23T06:39:55.120Z,74.40
2022-12-23T06:40:55.103Z,74.43
2022-12-23T06:41:55.096Z,74.43
2022-12-23T06:42:55.088Z,74.43
2022-12-23T06:43:55.070Z,74.40
2022-12-23T06:44:55.066Z,74.43
2022-12-23T06:45:55.095Z,74.33
2022-12-23T06:46:55.064Z,74.43
2022-12-23T06:47:55.015Z,74.43
2022-12-23T06:48:55.003Z,74.43
2022-12-23T06:49:54.988Z,74.53
2022-12-23T06:50:54.977Z,74.43
2022-12-23T06:51:54.955Z,74.53
2022-12-23T06:52:54.947Z,74.53
2022-12-23T06:53:54.929Z,74.53
2022-12-23T06:54:54.919Z,74.53
2022-12-23T06:55:54.904Z,74.53
2022-12-23T06:56:54.894Z,74.53
2022-12-23T06:57:54.879Z,74.63
2022-12-23T06:58:54.862Z,74.53
2022-12-23T06:59:54.849Z,74.53
2022-12-23T07:00:54.845Z,74.67
2022-12-23T07:01:54.897Z,74.57
2022-12-23T07:02:55.046Z,74.63
2022-12-23T07:03:54.799Z,74.53
2022-12-23T07:04:54.787Z,74.57
2022-12-23T07:05:54.770Z,74.63
2022-12-23T07:06:54.755Z,74.63
2022-12-23T07:07:54.791Z,74.67
2022-12-23T07:08:54.729Z,74.57
2022-12-23T07:09:54.710Z,74.67
2022-12-23T07:10:54.702Z,74.57
2022-12-23T07:11:54.695Z,74.57
2022-12-23T07:12:54.687Z,74.67
2022-12-23T07:13:54.713Z,74.57
2022-12-23T07:14:54.656Z,74.63
2022-12-23T07:15:54.638Z,74.57
2022-12-23T07:16:54.668Z,74.53
2022-12-23T07:17:54.617Z,74.53
2022-12-23T07:18:54.696Z,74.43
2022-12-23T07:19:54.583Z,74.53
2022-12-23T07:20:54.568Z,74.40
2022-12-23T07:21:54.553Z,74.53
2022-12-23T07:22:54.541Z,74.53
2022-12-23T07:23:54.537Z,74.53
2022-12-23T07:24:54.516Z,74.57
2022-12-23T07:25:54.500Z,74.63
2022-12-23T07:26:54.494Z,74.57
2022-12-23T07:27:54.478Z,74.53
2022-12-23T07:28:54.476Z,74.50
2022-12-23T07:29:54.451Z,74.40
2022-12-23T07:30:54.441Z,74.43
2022-12-23T07:31:54.558Z,74.29
2022-12-23T07:32:54.409Z,74.29
2022-12-23T07:33:54.395Z,74.33
2022-12-23T07:34:54.412Z,74.33
2022-12-23T07:35:54.364Z,74.43
2022-12-23T07:36:54.353Z,74.29
2022-12-23T07:37:54.336Z,74.40
2022-12-23T07:38:54.319Z,74.33
2022-12-23T07:39:54.312Z,74.33
2022-12-23T07:40:54.299Z,74.29
2022-12-23T07:42:09.352Z,74.29
2022-12-23T07:42:55.306Z,74.29
2022-12-23T07:43:54.262Z,74.29
2022-12-23T07:44:54.252Z,74.33
2022-12-23T07:45:59.929Z,74.33
2022-12-23T07:46:55.252Z,74.43
2022-12-23T07:47:54.205Z,74.29
2022-12-23T07:48:54.208Z,74.33
2022-12-23T07:49:54.178Z,74.29
2022-12-23T07:50:54.190Z,74.29
2022-12-23T07:51:54.152Z,74.19
2022-12-23T07:52:54.137Z,74.15
2022-12-23T07:53:54.126Z,74.19
2022-12-23T07:54:54.110Z,74.19
2022-12-23T07:55:56.552Z,74.29
2022-12-23T07:56:54.084Z,74.33
2022-12-23T07:57:54.076Z,74.29
2022-12-23T07:58:54.056Z,74.33
2022-12-23T07:59:54.051Z,74.22
2022-12-23T08:00:54.029Z,74.19
2022-12-23T08:01:54.209Z,74.29
2022-12-23T08:02:54.203Z,74.19
2022-12-23T08:03:54.070Z,74.19
2022-12-23T08:04:54.020Z,74.05
2022-12-23T08:05:53.962Z,74.08
2022-12-23T08:06:53.979Z,74.08
2022-12-23T08:07:53.942Z,74.05
2022-12-23T08:08:53.927Z,74.19
2022-12-23T08:09:53.908Z,74.08
2022-12-23T08:10:53.894Z,74.08
2022-12-23T08:11:53.897Z,74.19
2022-12-23T08:12:53.875Z,74.19
2022-12-23T08:13:53.865Z,74.08
2022-12-23T08:14:53.844Z,74.19
2022-12-23T08:15:53.829Z,74.08
2022-12-23T08:16:53.903Z,74.08
2022-12-23T08:17:53.803Z,73.98
2022-12-23T08:18:53.798Z,74.08
2022-12-23T08:19:53.777Z,73.95
2022-12-23T08:20:53.762Z,73.81
2022-12-23T08:21:53.752Z,73.85
2022-12-23T08:22:53.756Z,73.85
2022-12-23T08:23:53.718Z,73.85
2022-12-23T08:24:53.741Z,73.74
2022-12-23T08:25:53.693Z,73.81
2022-12-23T08:26:53.687Z,73.71
2022-12-23T08:27:53.673Z,73.71
2022-12-23T08:28:53.729Z,73.64
2022-12-23T08:29:53.639Z,73.71
2022-12-23T08:30:53.697Z,73.71
2022-12-23T08:31:53.608Z,73.61
2022-12-23T08:32:53.596Z,73.64
2022-12-23T08:33:53.581Z,73.61
2022-12-23T08:34:53.581Z,73.74
2022-12-23T08:35:53.555Z,73.71
2022-12-23T08:36:53.541Z,73.61
2022-12-23T08:37:53.526Z,73.61
2022-12-23T08:38:53.560Z,73.71
2022-12-23T08:39:53.509Z,73.64
2022-12-23T08:40:53.492Z,73.61
2022-12-23T08:41:53.479Z,73.74
2022-12-23T08:42:53.473Z,73.64
2022-12-23T08:43:53.462Z,73.61
2022-12-23T08:44:53.441Z,73.50
2022-12-23T08:45:53.542Z,73.61
2022-12-23T08:46:53.419Z,73.61
2022-12-23T08:47:53.421Z,73.50
2022-12-23T08:48:53.374Z,73.50
2022-12-23T08:49:53.364Z,73.50
2022-12-23T08:50:53.361Z,73.50
2022-12-23T08:51:53.365Z,73.50
2022-12-23T08:52:53.349Z,73.50
2022-12-23T08:53:59.548Z,73.50
2022-12-23T08:54:53.374Z,73.61
2022-12-23T08:55:53.291Z,73.64
2022-12-23T08:56:53.277Z,73.64
2022-12-23T08:57:53.265Z,73.54
2022-12-23T08:58:53.255Z,73.64
2022-12-23T08:59:53.231Z,73.50
2022-12-23T09:00:53.215Z,73.50
2022-12-23T09:01:53.384Z,73.54
2022-12-23T09:02:53.358Z,73.40
2022-12-23T09:03:53.240Z,73.50
2022-12-23T09:04:53.165Z,73.40
2022-12-23T09:05:53.155Z,73.36
2022-12-23T09:06:53.143Z,73.40
2022-12-23T09:07:53.131Z,73.40
2022-12-23T09:08:53.117Z,73.40
2022-12-23T09:09:53.107Z,73.40
2022-12-23T09:10:53.109Z,73.30
2022-12-23T09:11:53.079Z,73.36
2022-12-23T09:12:53.061Z,73.40
2022-12-23T09:13:53.052Z,73.50
2022-12-23T09:14:53.042Z,73.54
2022-12-23T09:15:53.076Z,73.54
2022-12-23T09:16:53.012Z,73.64
2022-12-23T09:17:52.991Z,73.61
2022-12-23T09:18:52.994Z,73.54
2022-12-23T09:19:53.485Z,73.50
2022-12-23T09:20:52.954Z,73.40
2022-12-23T09:21:52.959Z,73.40
2022-12-23T09:22:52.928Z,73.19
2022-12-23T09:23:52.916Z,73.19
2022-12-23T09:24:52.899Z,73.19
2022-12-23T09:25:52.889Z,73.30
2022-12-23T09:26:52.901Z,73.30
2022-12-23T09:27:52.857Z,73.30
2022-12-23T09:28:53.059Z,73.40
2022-12-23T09:29:52.830Z,73.30
2022-12-23T09:30:52.867Z,73.30
2022-12-23T09:31:52.864Z,73.16
2022-12-23T09:32:52.790Z,73.27
2022-12-23T09:33:52.803Z,73.30
2022-12-23T09:34:52.774Z,73.30
2022-12-23T09:35:52.744Z,73.30
2022-12-23T09:36:55.425Z,73.30
2022-12-23T09:37:52.717Z,73.19
2022-12-23T09:38:52.706Z,73.19
2022-12-23T09:39:52.695Z,73.19
2022-12-23T09:40:52.683Z,73.10
2022-12-23T09:41:52.666Z,73.16
2022-12-23T09:42:52.684Z,73.16
2022-12-23T09:43:52.652Z,73.06
2022-12-23T09:44:52.653Z,72.96
2022-12-23T09:45:52.622Z,72.82
2022-12-23T09:46:52.694Z,72.82
2022-12-23T09:47:52.602Z,72.82
2022-12-23T09:48:52.576Z,72.72
2022-12-23T09:49:52.562Z,72.68
2022-12-23T09:50:52.548Z,72.72
2022-12-23T09:51:52.538Z,72.72
2022-12-23T09:52:52.525Z,72.72
2022-12-23T09:53:52.520Z,72.72
2022-12-23T09:54:52.498Z,72.72
2022-12-23T09:55:52.487Z,72.72
2022-12-23T09:56:52.482Z,72.82
2022-12-23T09:57:52.462Z,72.82
2022-12-23T09:58:52.465Z,72.72
2022-12-23T09:59:52.440Z,72.75
2022-12-23T10:00:52.420Z,72.82
2022-12-23T10:01:52.601Z,72.82
2022-12-23T10:02:52.642Z,72.72
2022-12-23T10:03:52.559Z,72.72
2022-12-23T10:04:52.363Z,72.58
2022-12-23T10:05:52.360Z,72.58
2022-12-23T10:06:56.217Z,72.48
2022-12-23T10:07:52.324Z,72.38
2022-12-23T10:08:52.314Z,72.38
2022-12-23T10:09:52.306Z,72.38
2022-12-23T10:10:52.282Z,72.38
2022-12-23T10:11:52.283Z,72.38
2022-12-23T10:12:52.266Z,72.38
2022-12-23T10:13:52.247Z,72.48
2022-12-23T10:14:52.355Z,72.51
2022-12-23T10:15:52.275Z,72.58
2022-12-23T10:16:52.204Z,72.41
2022-12-23T10:17:52.188Z,72.38
2022-12-23T10:18:52.175Z,72.38
2022-12-23T10:19:52.162Z,72.24
2022-12-23T10:20:52.148Z,72.38
2022-12-23T10:21:52.148Z,72.14
2022-12-23T10:22:52.127Z,72.03
2022-12-23T10:23:52.107Z,72.00
2022-12-23T10:24:52.150Z,71.90
2022-12-23T10:25:52.086Z,72.14
2022-12-23T10:26:52.076Z,72.00
2022-12-23T10:27:52.071Z,72.00
2022-12-23T10:28:52.044Z,71.90
2022-12-23T10:29:52.103Z,71.90
2022-12-23T10:31:10.976Z,71.69
2022-12-23T10:31:53.136Z,71.66
2022-12-23T10:32:52.014Z,71.45
2022-12-23T10:33:51.974Z,71.42
2022-12-23T10:34:51.960Z,71.42
2022-12-23T10:35:52.072Z,71.42
2022-12-23T10:36:51.995Z,71.36
2022-12-23T10:37:51.919Z,71.32
2022-12-23T10:38:51.919Z,71.32
2022-12-23T10:39:51.900Z,71.32
2022-12-23T10:40:51.884Z,71.42
2022-12-23T10:41:51.867Z,71.32
2022-12-23T10:42:51.858Z,71.22
2022-12-23T10:43:51.839Z,71.19
2022-12-23T10:44:51.825Z,71.08
2022-12-23T10:45:51.815Z,70.98
2022-12-23T10:46:51.949Z,70.88
2022-12-23T10:47:51.798Z,70.88
2022-12-23T10:48:51.788Z,70.98
2022-12-23T10:49:51.768Z,71.29
2022-12-23T10:50:51.769Z,71.12
2022-12-23T10:51:51.749Z,71.01
2022-12-23T10:52:51.730Z,70.98
2022-12-23T10:53:51.716Z,70.88
2022-12-23T10:54:51.715Z,71.08
2022-12-23T10:55:51.689Z,70.88
2022-12-23T10:56:51.672Z,70.78
2022-12-23T10:57:51.697Z,70.75
2022-12-23T10:58:51.647Z,71.25
2022-12-23T10:59:51.654Z,70.75
2022-12-23T11:00:51.652Z,70.54
2022-12-23T11:01:51.852Z,70.84
2022-12-23T11:02:51.750Z,70.84
2022-12-23T11:03:51.699Z,70.98
2022-12-23T11:04:51.578Z,70.75
2022-12-23T11:05:51.557Z,70.95
2022-12-23T11:07:10.840Z,70.75
2022-12-23T11:07:52.558Z,70.75
2022-12-23T11:08:51.518Z,70.54
2022-12-23T11:09:51.511Z,70.54
2022-12-23T11:10:51.487Z,70.64
2022-12-23T11:11:51.509Z,70.54
2022-12-23T11:12:51.472Z,70.51
2022-12-23T11:13:51.447Z,71.15
2022-12-23T11:14:51.438Z,70.84
2022-12-23T11:15:51.526Z,70.95
2022-12-23T11:16:51.513Z,70.98
2022-12-23T11:17:51.396Z,70.84
2022-12-23T11:18:51.410Z,70.98
2022-12-23T11:19:51.379Z,71.39
2022-12-23T11:20:51.360Z,70.84
2022-12-23T11:21:51.350Z,70.84
2022-12-23T11:22:51.344Z,70.95
2022-12-23T11:23:51.322Z,70.54
2022-12-23T11:24:51.309Z,70.71
2022-12-23T11:25:51.290Z,70.51
2022-12-23T11:26:51.274Z,70.95
2022-12-23T11:27:51.263Z,70.51
2022-12-23T11:28:51.256Z,70.51
2022-12-23T11:29:51.238Z,70.20
2022-12-23T11:30:55.814Z,70.30
2022-12-23T11:31:51.310Z,70.51
2022-12-23T11:32:51.220Z,70.30
2022-12-23T11:33:51.689Z,70.61
2022-12-23T11:34:51.210Z,70.81
2022-12-23T11:35:51.198Z,70.40
2022-12-23T11:36:54.732Z,70.40
2022-12-23T11:37:51.134Z,70.61
2022-12-23T11:38:51.128Z,70.64
2022-12-23T11:39:51.109Z,70.64
2022-12-23T11:40:51.095Z,70.51
2022-12-23T11:41:51.104Z,70.40
2022-12-23T11:42:55.147Z,70.20
2022-12-23T11:43:51.052Z,70.30
2022-12-23T11:44:51.043Z,70.37
2022-12-23T11:45:51.102Z,70.40
2022-12-23T11:46:51.020Z,70.40
2022-12-23T11:47:50.999Z,70.51
2022-12-23T11:48:54.716Z,70.30
2022-12-23T11:49:50.978Z,70.10
2022-12-23T11:50:50.985Z,70.40
2022-12-23T11:51:50.948Z,70.20
2022-12-23T11:52:50.935Z,70.51
2022-12-23T11:53:50.922Z,70.27
2022-12-23T11:54:54.437Z,70.27
2022-12-23T11:55:50.890Z,70.17
2022-12-23T11:56:50.991Z,70.37
2022-12-23T11:57:50.864Z,70.37
2022-12-23T11:58:50.863Z,70.40
2022-12-23T11:59:50.850Z,70.30
2022-12-23T12:00:55.563Z,70.61
2022-12-23T12:01:50.943Z,70.40
2022-12-23T12:02:51.030Z,70.40
2022-12-23T12:03:50.853Z,70.30
2022-12-23T12:04:50.799Z,70.30
2022-12-23T12:05:50.758Z,70.20
2022-12-23T12:06:56.017Z,70.30
2022-12-23T12:07:50.741Z,70.20
2022-12-23T12:08:50.748Z,70.40
2022-12-23T12:09:50.716Z,70.51
2022-12-23T12:10:50.713Z,70.51
2022-12-23T12:11:50.681Z,70.92
2022-12-23T12:12:54.687Z,70.54
2022-12-23T12:13:50.654Z,70.64
2022-12-23T12:14:50.655Z,70.75
2022-12-23T12:15:50.633Z,70.30
2022-12-23T12:16:50.694Z,70.40
2022-12-23T12:17:50.613Z,70.30
2022-12-23T12:18:55.533Z,70.51
2022-12-23T12:19:50.576Z,70.40
2022-12-23T12:20:50.577Z,70.20
2022-12-23T12:21:50.554Z,70.20
2022-12-23T12:22:50.563Z,70.27
2022-12-23T12:23:55.426Z,70.30
2022-12-23T12:24:51.558Z,70.40
2022-12-23T12:25:50.499Z,70.20
2022-12-23T12:26:50.484Z,70.40
2022-12-23T12:27:50.493Z,70.30
2022-12-23T12:28:50.460Z,70.30
2022-12-23T12:29:50.444Z,70.30
2022-12-23T12:30:50.492Z,70.30
2022-12-23T12:31:50.443Z,70.10
2022-12-23T12:32:50.423Z,70.51
2022-12-23T12:33:50.398Z,70.17
2022-12-23T12:34:50.386Z,70.30
2022-12-23T12:35:53.689Z,70.10
2022-12-23T12:36:50.440Z,70.51
2022-12-23T12:37:50.352Z,70.20
2022-12-23T12:38:50.350Z,70.30
2022-12-23T12:39:50.310Z,70.20
2022-12-23T12:40:50.300Z,70.43
2022-12-23T12:41:50.286Z,70.34
2022-12-23T12:42:50.276Z,70.51
2022-12-23T12:43:50.260Z,70.64
2022-12-23T12:44:50.254Z,70.84
2022-12-23T12:45:50.309Z,70.54
2022-12-23T12:46:50.226Z,70.43
2022-12-23T12:47:55.222Z,70.30
2022-12-23T12:48:51.226Z,70.20
2022-12-23T12:49:50.183Z,70.10
2022-12-23T12:50:50.171Z,70.06
2022-12-23T12:51:50.163Z,69.96